createdAt,value
2023-04-09T00:01:04.556Z,100739.09
2023-04-09T00:03:34.953Z,100736.53
2023-04-09T00:06:03.250Z,100726.94
2023-04-09T00:08:31.413Z,100731.22
2023-04-09T00:11:00.256Z,100719.91
2023-04-09T00:13:37.943Z,100720.75
2023-04-09T00:16:07.849Z,100721.66
2023-04-09T00:18:37.369Z,100714.66
2023-04-09T00:21:07.185Z,100715.50
2023-04-09T00:23:35.960Z,100713.75
2023-04-09T00:26:04.184Z,100715.50
2023-04-09T00:28:32.267Z,100713.78
2023-04-09T00:31:00.528Z,100710.31
2023-04-09T00:33:28.702Z,100712.03
2023-04-09T00:35:58.189Z,100712.03
2023-04-09T00:38:26.279Z,100706.84
2023-04-09T00:40:54.484Z,100704.28
2023-04-09T00:43:23.167Z,100697.34
2023-04-09T00:45:51.418Z,100695.63
2023-04-09T00:48:19.648Z,100700.84
2023-04-09T00:50:47.790Z,100693.03
2023-04-09T00:53:17.525Z,100685.19
2023-04-09T00:55:46.648Z,100696.50
2023-04-09T00:58:14.989Z,100688.69
2023-04-09T01:00:43.160Z,100686.09
2023-04-09T01:03:11.513Z,100682.63
2023-04-09T01:05:45.848Z,100673.91
2023-04-09T01:08:28.794Z,100673.94
2023-04-09T01:11:09.115Z,100679.13
2023-04-09T01:13:48.726Z,100675.66
2023-04-09T01:16:20.373Z,100676.53
2023-04-09T01:18:53.858Z,100671.28
2023-04-09T01:21:26.703Z,100665.19
2023-04-09T01:24:07.054Z,100663.44
2023-04-09T01:26:54.981Z,100658.22
2023-04-09T01:29:31.601Z,100661.66
2023-04-09T01:32:01.839Z,100663.38
2023-04-09T01:34:31.820Z,100659.81
2023-04-09T01:37:03.843Z,100659.81
2023-04-09T01:39:32.464Z,100660.69
2023-04-09T01:42:03.858Z,100653.69
2023-04-09T01:44:34.142Z,100651.97
2023-04-09T01:47:02.995Z,100651.09
2023-04-09T01:49:32.216Z,100657.19
2023-04-09T01:52:00.778Z,100658.13
2023-04-09T01:54:28.844Z,100664.22
2023-04-09T01:56:59.024Z,100664.22
2023-04-09T01:59:27.205Z,100659.00
2023-04-09T02:02:01.313Z,100660.78
2023-04-09T02:04:34.385Z,100658.19
2023-04-09T02:07:09.733Z,100661.66
2023-04-09T02:09:41.497Z,100664.28
2023-04-09T02:12:14.077Z,100655.63
2023-04-09T02:14:43.191Z,100658.25
2023-04-09T02:17:13.736Z,100647.84
2023-04-09T02:19:43.208Z,100647.88
2023-04-09T02:22:12.582Z,100646.19
2023-04-09T02:24:41.592Z,100641.84
2023-04-09T02:27:10.298Z,100642.72
2023-04-09T02:29:40.313Z,100641.03
2023-04-09T02:32:08.790Z,100633.25
2023-04-09T02:34:38.317Z,100634.16
2023-04-09T02:37:06.465Z,100642.00
2023-04-09T02:39:34.855Z,100637.66
2023-04-09T02:42:03.627Z,100641.09
2023-04-09T02:44:31.755Z,100645.41
2023-04-09T02:46:59.805Z,100650.56
2023-04-09T02:49:27.956Z,100654.94
2023-04-09T02:51:57.744Z,100649.69
2023-04-09T02:54:25.936Z,100652.25
2023-04-09T02:56:54.033Z,100650.50
2023-04-09T02:59:22.105Z,100647.91
2023-04-09T03:01:50.688Z,100647.09
2023-04-09T03:04:19.137Z,100649.75
2023-04-09T03:06:47.352Z,100642.84
2023-04-09T03:09:16.770Z,100636.78
2023-04-09T03:11:44.907Z,100624.66
2023-04-09T03:14:13.127Z,100632.50
2023-04-09T03:16:41.233Z,100621.19
2023-04-09T03:19:09.450Z,100627.31
2023-04-09T03:21:38.567Z,100626.44
2023-04-09T03:24:07.339Z,100628.19
2023-04-09T03:26:38.044Z,100627.34
2023-04-09T03:29:08.289Z,100623.03
2023-04-09T03:31:36.312Z,100627.41
2023-04-09T03:34:04.632Z,100623.91
2023-04-09T03:36:34.214Z,100627.41
2023-04-09T03:39:04.498Z,100618.69
2023-04-09T03:41:39.465Z,100605.66
2023-04-09T03:44:12.020Z,100613.50
2023-04-09T03:46:55.355Z,100618.75
2023-04-09T03:49:23.951Z,100618.78
2023-04-09T03:51:52.149Z,100611.84
2023-04-09T03:54:21.279Z,100611.88
2023-04-09T03:56:51.278Z,100612.75
2023-04-09T03:59:24.097Z,100604.97
2023-04-09T04:01:53.189Z,100591.09
2023-04-09T04:04:23.800Z,100598.06
2023-04-09T04:06:56.735Z,100598.09
2023-04-09T04:09:34.170Z,100593.75
2023-04-09T04:12:08.358Z,100585.03
2023-04-09T04:14:51.305Z,100591.16
2023-04-09T04:17:26.257Z,100584.22
2023-04-09T04:19:56.414Z,100588.56
2023-04-09T04:22:26.380Z,100574.69
2023-04-09T04:24:59.314Z,100578.19
2023-04-09T04:27:28.819Z,100574.75
2023-04-09T04:30:00.174Z,100563.47
2023-04-09T04:32:42.017Z,100565.25
2023-04-09T04:35:12.669Z,100561.75
2023-04-09T04:37:42.346Z,100561.75
2023-04-09T04:40:11.210Z,100560.88
2023-04-09T04:42:44.414Z,100560.88
2023-04-09T04:45:16.499Z,100563.47
2023-04-09T04:47:49.683Z,100563.47
2023-04-09T04:50:17.978Z,100566.09
2023-04-09T04:52:56.059Z,100556.56
2023-04-09T04:55:28.075Z,100561.75
2023-04-09T04:57:57.498Z,100551.38
2023-04-09T05:00:29.533Z,100557.41
2023-04-09T05:03:02.371Z,100552.22
2023-04-09T05:05:46.579Z,100560.00
2023-04-09T05:08:14.936Z,100555.69
2023-04-09T05:10:44.705Z,100565.19
2023-04-09T05:13:15.558Z,100565.16
2023-04-09T05:15:43.719Z,100571.22
2023-04-09T05:18:12.277Z,100575.53
2023-04-09T05:20:41.244Z,100573.81
2023-04-09T05:23:12.577Z,100573.84
2023-04-09T05:25:44.401Z,100568.63
2023-04-09T05:28:25.061Z,100558.22
2023-04-09T05:31:03.999Z,100553.03
2023-04-09T05:33:38.290Z,100539.19
2023-04-09T05:36:16.794Z,100542.69
2023-04-09T05:38:45.167Z,100539.22
2023-04-09T05:41:13.284Z,100526.19
2023-04-09T05:43:52.554Z,100527.00
2023-04-09T05:46:21.633Z,100530.38
2023-04-09T05:48:51.408Z,100526.81
2023-04-09T05:51:19.868Z,100529.38
2023-04-09T05:53:48.173Z,100529.34
2023-04-09T05:56:17.201Z,100525.84
2023-04-09T05:58:54.184Z,100514.50
2023-04-09T06:01:22.288Z,100519.66
2023-04-09T06:03:51.319Z,100514.47
2023-04-09T06:06:20.067Z,100514.47
2023-04-09T06:08:48.130Z,100524.88
2023-04-09T06:11:16.245Z,100516.19
2023-04-09T06:13:45.687Z,100506.59
2023-04-09T06:16:16.212Z,100497.84
2023-04-09T06:18:46.772Z,100512.63
2023-04-09T06:21:14.881Z,100521.31
2023-04-09T06:23:43.035Z,100534.31
2023-04-09T06:26:11.060Z,100536.00
2023-04-09T06:28:39.156Z,100535.97
2023-04-09T06:31:07.266Z,100536.84
2023-04-09T06:33:36.687Z,100546.34
2023-04-09T06:36:04.940Z,100539.34
2023-04-09T06:38:33.170Z,100537.59
2023-04-09T06:41:01.269Z,100535.84
2023-04-09T06:43:29.387Z,100530.56
2023-04-09T06:45:57.467Z,100526.19
2023-04-09T06:48:25.705Z,100524.47
2023-04-09T06:50:55.053Z,100514.03
2023-04-09T06:53:23.212Z,100512.25
2023-04-09T06:55:51.394Z,100513.09
2023-04-09T06:58:21.026Z,100518.38
2023-04-09T07:00:49.126Z,100514.09
2023-04-09T07:03:17.409Z,100522.78
2023-04-09T07:05:45.574Z,100519.25
2023-04-09T07:08:15.205Z,100508.78
2023-04-09T07:10:43.293Z,100500.00
2023-04-09T07:13:11.718Z,100498.22
2023-04-09T07:15:40.619Z,100500.78
2023-04-09T07:18:10.734Z,100498.06
2023-04-09T07:20:38.780Z,100494.44
2023-04-09T07:23:06.961Z,100502.19
2023-04-09T07:25:36.466Z,100494.31
2023-04-09T07:28:04.714Z,100496.78
2023-04-09T07:30:32.966Z,100502.88
2023-04-09T07:33:01.142Z,100515.94
2023-04-09T07:35:29.283Z,100503.72
2023-04-09T07:37:58.932Z,100509.81
2023-04-09T07:40:27.157Z,100506.34
2023-04-09T07:42:58.142Z,100507.09
2023-04-09T07:45:26.645Z,100495.63
2023-04-09T07:47:54.764Z,100498.97
2023-04-09T07:50:23.186Z,100498.88
2023-04-09T07:52:51.443Z,100506.63
2023-04-09T07:55:20.277Z,100510.91
2023-04-09T07:57:48.557Z,100501.28
2023-04-09T08:00:19.008Z,100507.41
2023-04-09T08:02:47.489Z,100498.59
2023-04-09T08:05:15.722Z,100507.38
2023-04-09T08:07:43.917Z,100515.13
2023-04-09T08:10:15.236Z,100513.44
2023-04-09T08:12:43.570Z,100508.16
2023-04-09T08:15:12.086Z,100522.13
2023-04-09T08:17:41.554Z,100511.63
2023-04-09T08:20:10.427Z,100523.72
2023-04-09T08:22:38.563Z,100515.69
2023-04-09T08:25:07.366Z,100514.06
2023-04-09T08:27:36.182Z,100507.78
2023-04-09T08:30:04.976Z,100519.91
2023-04-09T08:32:33.225Z,100511.28
2023-04-09T08:35:02.662Z,100501.56
2023-04-09T08:37:30.776Z,100510.28
2023-04-09T08:40:00.066Z,100501.56
2023-04-09T08:42:28.925Z,100498.78
2023-04-09T08:44:57.009Z,100502.06
2023-04-09T08:47:25.580Z,100497.69
2023-04-09T08:49:54.286Z,100488.91
2023-04-09T08:52:33.326Z,100491.28
2023-04-09T08:55:01.896Z,100485.22
2023-04-09T08:57:30.049Z,100487.81
2023-04-09T08:59:58.915Z,100483.88
2023-04-09T09:02:27.156Z,100479.22
2023-04-09T09:05:00.776Z,100488.72
2023-04-09T09:07:30.802Z,100491.16
2023-04-09T09:10:00.286Z,100485.09
2023-04-09T09:12:33.077Z,100481.72
2023-04-09T09:15:01.249Z,100472.06
2023-04-09T09:17:30.603Z,100485.09
2023-04-09T09:19:58.855Z,100477.09
2023-04-09T09:22:27.094Z,100484.72
2023-04-09T09:24:57.494Z,100489.97
2023-04-09T09:27:44.359Z,100491.53
2023-04-09T09:30:22.841Z,100485.44
2023-04-09T09:32:53.941Z,100483.78
2023-04-09T09:35:23.554Z,100481.31
2023-04-09T09:38:03.960Z,100466.03
2023-04-09T09:40:33.698Z,100472.94
2023-04-09T09:43:01.842Z,100483.25
2023-04-09T09:45:31.458Z,100480.28
2023-04-09T09:47:59.670Z,100480.53
2023-04-09T09:50:31.797Z,100465.19
2023-04-09T09:53:04.725Z,100465.28
2023-04-09T09:55:35.791Z,100464.19
2023-04-09T09:58:12.061Z,100467.72
2023-04-09T10:00:41.880Z,100461.28
2023-04-09T10:03:17.134Z,100451.84
2023-04-09T10:05:46.468Z,100459.41
2023-04-09T10:08:14.539Z,100459.88
2023-04-09T10:10:44.449Z,100462.59
2023-04-09T10:13:21.783Z,100453.88
2023-04-09T10:15:50.721Z,100456.63
2023-04-09T10:18:19.860Z,100453.53
2023-04-09T10:20:52.604Z,100438.31
2023-04-09T10:23:28.736Z,100442.44
2023-04-09T10:25:58.678Z,100430.97
2023-04-09T10:28:27.340Z,100424.78
2023-04-09T10:30:56.443Z,100422.44
2023-04-09T10:33:27.797Z,100417.63
2023-04-09T10:35:58.534Z,100411.81
2023-04-09T10:38:46.990Z,100405.91
2023-04-09T10:41:23.325Z,100406.53
2023-04-09T10:43:51.727Z,100410.28
2023-04-09T10:46:38.692Z,100395.50
2023-04-09T10:49:11.319Z,100407.78
2023-04-09T10:51:40.029Z,100390.38
2023-04-09T10:54:28.633Z,100388.44
2023-04-09T10:57:17.956Z,100391.69
2023-04-09T10:59:47.824Z,100390.44
2023-04-09T11:03:01.737Z,100392.66
2023-04-09T11:05:34.049Z,100386.25
2023-04-09T11:08:07.157Z,100377.22
2023-04-09T11:10:35.700Z,100366.69
2023-04-09T11:13:05.444Z,100368.06
2023-04-09T11:15:36.118Z,100366.25
2023-04-09T11:18:06.836Z,100353.28
2023-04-09T11:20:35.755Z,100351.63
2023-04-09T11:23:04.263Z,100341.84
2023-04-09T11:25:33.986Z,100336.16
2023-04-09T11:28:06.179Z,100338.94
2023-04-09T11:30:35.690Z,100338.94
2023-04-09T11:33:04.006Z,100333.38
2023-04-09T11:35:35.282Z,100327.63
2023-04-09T11:38:07.722Z,100326.78
2023-04-09T11:40:36.021Z,100313.94
2023-04-09T11:43:06.061Z,100321.38
2023-04-09T11:45:34.282Z,100313.19
2023-04-09T11:48:03.712Z,100303.97
2023-04-09T11:50:33.471Z,100295.41
2023-04-09T11:53:01.719Z,100296.56
2023-04-09T11:55:30.830Z,100294.03
2023-04-09T11:58:01.241Z,100286.66
2023-04-09T12:00:30.921Z,100292.34
2023-04-09T12:03:03.076Z,100282.47
2023-04-09T12:05:33.642Z,100281.94
2023-04-09T12:08:05.004Z,100276.91
2023-04-09T12:10:35.525Z,100272.50
2023-04-09T12:13:04.854Z,100265.06
2023-04-09T12:15:35.982Z,100266.13
2023-04-09T12:18:04.857Z,100263.31
2023-04-09T12:20:35.934Z,100263.19
2023-04-09T12:23:05.863Z,100255.78
2023-04-09T12:25:36.747Z,100252.03
2023-04-09T12:28:05.787Z,100260.44
2023-04-09T12:30:36.089Z,100258.47
2023-04-09T12:33:05.160Z,100259.19
2023-04-09T12:35:34.499Z,100255.78
2023-04-09T12:38:02.794Z,100260.66
2023-04-09T12:40:31.217Z,100257.16
2023-04-09T12:42:59.470Z,100256.53
2023-04-09T12:45:28.066Z,100243.09
2023-04-09T12:47:58.045Z,100246.06
2023-04-09T12:50:26.403Z,100242.16
2023-04-09T12:52:54.504Z,100238.94
2023-04-09T12:55:23.122Z,100249.03
2023-04-09T12:57:52.095Z,100241.25
2023-04-09T13:00:20.205Z,100229.19
2023-04-09T13:02:48.512Z,100231.44
2023-04-09T13:05:18.034Z,100232.19
2023-04-09T13:07:46.792Z,100222.63
2023-04-09T13:10:14.867Z,100213.72
2023-04-09T13:12:43.055Z,100217.78
2023-04-09T13:15:11.820Z,100217.78
2023-04-09T13:17:39.906Z,100201.06
2023-04-09T13:20:09.055Z,100202.63
2023-04-09T13:22:38.530Z,100209.03
2023-04-09T13:25:06.973Z,100202.50
2023-04-09T13:27:35.146Z,100199.56
2023-04-09T13:30:03.880Z,100190.22
2023-04-09T13:32:32.082Z,100189.72
2023-04-09T13:35:00.482Z,100195.50
2023-04-09T13:37:28.646Z,100189.88
2023-04-09T13:39:58.007Z,100191.63
2023-04-09T13:42:26.168Z,100185.31
2023-04-09T13:44:54.485Z,100188.50
2023-04-09T13:47:23.927Z,100188.81
2023-04-09T13:49:53.113Z,100180.94
2023-04-09T13:52:21.316Z,100180.84
2023-04-09T13:54:49.565Z,100192.88
2023-04-09T13:57:18.992Z,100187.88
2023-04-09T13:59:47.112Z,100180.69
2023-04-09T14:02:15.603Z,100173.47
2023-04-09T14:04:43.821Z,100176.50
2023-04-09T14:07:12.015Z,100168.53
2023-04-09T14:09:40.555Z,100165.59
2023-04-09T14:12:08.652Z,100170.66
2023-04-09T14:14:38.030Z,100170.22
2023-04-09T14:17:06.120Z,100163.09
2023-04-09T14:19:34.194Z,100150.47
2023-04-09T14:22:02.451Z,100151.63
2023-04-09T14:24:30.510Z,100145.75
2023-04-09T14:26:59.533Z,100151.13
2023-04-09T14:29:27.652Z,100138.97
2023-04-09T14:31:57.367Z,100138.03
2023-04-09T14:34:25.551Z,100143.88
2023-04-09T14:36:53.689Z,100138.19
2023-04-09T14:39:21.902Z,100142.78
2023-04-09T14:41:50.072Z,100150.34
2023-04-09T14:44:18.100Z,100143.16
2023-04-09T14:46:46.252Z,100148.47
2023-04-09T14:49:15.654Z,100133.06
2023-04-09T14:51:43.848Z,100136.47
2023-04-09T14:54:11.966Z,100137.63
2023-04-09T14:56:40.113Z,100136.78
2023-04-09T14:59:08.187Z,100135.25
2023-04-09T15:01:36.477Z,100138.94
2023-04-09T15:04:04.710Z,100130.31
2023-04-09T15:06:34.205Z,100133.94
2023-04-09T15:09:02.329Z,100127.06
2023-04-09T15:11:30.606Z,100133.59
2023-04-09T15:13:58.898Z,100128.31
2023-04-09T15:16:28.699Z,100130.00
2023-04-09T15:18:59.117Z,100132.44
2023-04-09T15:21:27.881Z,100129.97
2023-04-09T15:23:58.987Z,100121.94
2023-04-09T15:26:27.881Z,100117.34
2023-04-09T15:29:04.072Z,100103.13
2023-04-09T15:31:33.094Z,100095.78
2023-04-09T15:34:01.613Z,100085.09
2023-04-09T15:36:31.579Z,100079.72
2023-04-09T15:39:01.223Z,100060.53
2023-04-09T15:41:32.117Z,100061.50
2023-04-09T15:44:00.471Z,100058.16
2023-04-09T15:46:28.648Z,100050.31
2023-04-09T15:48:56.842Z,100047.72
2023-04-09T15:51:24.889Z,100046.00
2023-04-09T15:53:53.048Z,100038.88
2023-04-09T15:56:22.442Z,100040.72
2023-04-09T15:58:50.789Z,100035.41
2023-04-09T16:01:19.538Z,100034.31
2023-04-09T16:03:52.114Z,100031.03
2023-04-09T16:06:21.157Z,100025.94
2023-04-09T16:08:49.326Z,100011.84
2023-04-09T16:11:17.731Z,100014.41
2023-04-09T16:13:47.784Z,100008.19
2023-04-09T16:16:16.160Z,100010.78
2023-04-09T16:18:44.217Z,100012.53
2023-04-09T16:21:12.565Z,100009.91
2023-04-09T16:23:40.965Z,100011.00
2023-04-09T16:26:09.334Z,100007.81
2023-04-09T16:28:37.845Z,100017.63
2023-04-09T16:31:07.556Z,100017.84
2023-04-09T16:33:35.693Z,100018.13
2023-04-09T16:36:03.865Z,100010.50
2023-04-09T16:38:34.081Z,100014.47
2023-04-09T16:41:03.464Z,100005.88
2023-04-09T16:43:34.574Z,99998.97
2023-04-09T16:46:03.201Z,99990.50
2023-04-09T16:48:32.573Z,99991.78
2023-04-09T16:51:00.950Z,99997.34
2023-04-09T16:53:28.985Z,99985.34
2023-04-09T16:55:57.556Z,99994.38
2023-04-09T16:58:25.699Z,99993.72
2023-04-09T17:00:54.315Z,99993.25
2023-04-09T17:03:24.007Z,99992.44
2023-04-09T17:05:54.872Z,99990.97
2023-04-09T17:08:25.850Z,99988.53
2023-04-09T17:11:02.713Z,100006.34
2023-04-09T17:13:34.219Z,99989.81
2023-04-09T17:16:02.574Z,99989.88
2023-04-09T17:18:30.945Z,99988.16
2023-04-09T17:21:00.456Z,99978.69
2023-04-09T17:23:28.625Z,99977.75
2023-04-09T17:25:56.941Z,99977.94
2023-04-09T17:28:25.058Z,99979.09
2023-04-09T17:30:53.151Z,99973.97
2023-04-09T17:33:21.285Z,99971.56
2023-04-09T17:35:49.449Z,99961.94
2023-04-09T17:38:21.376Z,99969.34
2023-04-09T17:40:49.791Z,99966.34
2023-04-09T17:43:18.346Z,99967.38
2023-04-09T17:45:46.362Z,99967.53
2023-04-09T17:48:14.552Z,99969.50
2023-04-09T17:50:42.604Z,99961.59
2023-04-09T17:53:10.775Z,99975.72
2023-04-09T17:55:40.154Z,99964.31
2023-04-09T17:58:08.238Z,99967.00
2023-04-09T18:00:36.335Z,99964.66
2023-04-09T18:03:05.291Z,99971.97
2023-04-09T18:05:35.259Z,99969.53
2023-04-09T18:08:03.892Z,99974.13
2023-04-09T18:10:32.458Z,99976.25
2023-04-09T18:13:01.898Z,99968.59
2023-04-09T18:15:32.765Z,99968.72
2023-04-09T18:18:01.225Z,99969.78
2023-04-09T18:20:29.512Z,99960.41
2023-04-09T18:22:57.683Z,99961.41
2023-04-09T18:25:25.833Z,99965.94
2023-04-09T18:27:53.998Z,99966.78
2023-04-09T18:30:23.447Z,99967.91
2023-04-09T18:32:52.383Z,99959.59
2023-04-09T18:35:20.947Z,99962.22
2023-04-09T18:37:49.135Z,99957.00
2023-04-09T18:40:18.642Z,99957.22
2023-04-09T18:42:51.783Z,99958.38
2023-04-09T18:45:20.170Z,99967.31
2023-04-09T18:47:49.729Z,99955.06
2023-04-09T18:50:18.971Z,99963.22
2023-04-09T18:52:47.277Z,99948.44
2023-04-09T18:55:16.366Z,99951.94
2023-04-09T18:57:44.861Z,99947.59
2023-04-09T19:00:13.623Z,99941.59
2023-04-09T19:02:42.927Z,99938.44
2023-04-09T19:05:12.778Z,99931.66
2023-04-09T19:07:41.137Z,99938.91
2023-04-09T19:10:09.682Z,99939.75
2023-04-09T19:12:38.410Z,99942.56
2023-04-09T19:15:07.012Z,99942.69
2023-04-09T19:17:35.172Z,99946.47
2023-04-09T19:20:04.460Z,99947.50
2023-04-09T19:22:33.802Z,99956.38
2023-04-09T19:25:02.057Z,99938.09
2023-04-09T19:27:30.230Z,99945.22
2023-04-09T19:29:59.956Z,99939.13
2023-04-09T19:32:28.135Z,99939.31
2023-04-09T19:34:56.319Z,99938.56
2023-04-09T19:37:27.528Z,99938.69
2023-04-09T19:39:58.598Z,99933.44
2023-04-09T19:42:28.632Z,99930.66
2023-04-09T19:44:56.806Z,99935.06
2023-04-09T19:47:24.985Z,99924.09
2023-04-09T19:49:53.572Z,99938.28
2023-04-09T19:52:21.988Z,99938.22
2023-04-09T19:54:56.475Z,99924.22
2023-04-09T19:57:26.391Z,99930.44
2023-04-09T19:59:55.129Z,99919.91
2023-04-09T20:02:23.961Z,99917.28
2023-04-09T20:04:52.403Z,99919.97
2023-04-09T20:07:20.551Z,99920.91
2023-04-09T20:09:49.685Z,99919.25
2023-04-09T20:12:21.688Z,99910.50
2023-04-09T20:14:50.373Z,99911.47
2023-04-09T20:17:19.908Z,99897.53
2023-04-09T20:19:48.084Z,99898.38
2023-04-09T20:22:16.245Z,99900.09
2023-04-09T20:24:44.423Z,99887.00
2023-04-09T20:27:12.803Z,99902.03
2023-04-09T20:29:43.128Z,99894.41
2023-04-09T20:32:11.331Z,99880.50
2023-04-09T20:34:39.902Z,99887.69
2023-04-09T20:37:08.262Z,99875.59
2023-04-09T20:39:36.563Z,99873.97
2023-04-09T20:42:05.360Z,99873.97
2023-04-09T20:44:33.945Z,99870.56
2023-04-09T20:47:03.691Z,99877.59
2023-04-09T20:49:31.713Z,99870.59
2023-04-09T20:51:59.819Z,99870.66
2023-04-09T20:54:29.419Z,99863.59
2023-04-09T20:56:57.875Z,99870.56
2023-04-09T20:59:26.397Z,99863.47
2023-04-09T21:01:55.531Z,99864.44
2023-04-09T21:04:25.576Z,99859.13
2023-04-09T21:06:53.891Z,99849.41
2023-04-09T21:09:22.768Z,99840.72
2023-04-09T21:11:50.973Z,99844.22
2023-04-09T21:14:19.077Z,99832.06
2023-04-09T21:16:47.532Z,99833.06
2023-04-09T21:19:15.714Z,99832.38
2023-04-09T21:21:46.227Z,99832.50
2023-04-09T21:24:14.472Z,99830.09
2023-04-09T21:26:50.986Z,99838.06
2023-04-09T21:29:20.784Z,99825.06
2023-04-09T21:31:49.639Z,99819.81
2023-04-09T21:34:17.930Z,99823.34
2023-04-09T21:36:47.453Z,99821.53
2023-04-09T21:39:15.641Z,99816.25
2023-04-09T21:41:43.671Z,99820.59
2023-04-09T21:44:11.784Z,99805.69
2023-04-09T21:46:40.885Z,99808.25
2023-04-09T21:49:09.178Z,99804.84
2023-04-09T21:51:37.596Z,99803.00
2023-04-09T21:54:08.024Z,99803.00
2023-04-09T21:56:37.175Z,99794.97
2023-04-09T21:59:06.254Z,99785.31
2023-04-09T22:01:35.455Z,99787.03
2023-04-09T22:04:04.128Z,99784.38
2023-04-09T22:06:32.656Z,99780.97
2023-04-09T22:09:01.823Z,99783.50
2023-04-09T22:11:31.616Z,99787.84
2023-04-09T22:13:59.784Z,99784.38
2023-04-09T22:16:28.045Z,99783.59
2023-04-09T22:18:56.901Z,99783.72
2023-04-09T22:21:26.038Z,99782.13
2023-04-09T22:23:54.098Z,99772.53
2023-04-09T22:26:22.663Z,99773.44
2023-04-09T22:28:52.491Z,99775.25
2023-04-09T22:31:21.568Z,99779.72
2023-04-09T22:33:49.691Z,99769.34
2023-04-09T22:36:17.891Z,99769.38
2023-04-09T22:38:46.183Z,99754.53
2023-04-09T22:41:15.985Z,99757.06
2023-04-09T22:43:44.065Z,99759.63
2023-04-09T22:46:13.469Z,99748.38
2023-04-09T22:48:44.758Z,99744.00
2023-04-09T22:51:14.549Z,99741.31
2023-04-09T22:53:42.710Z,99740.44
2023-04-09T22:56:10.950Z,99742.25
2023-04-09T22:58:39.134Z,99743.38
2023-04-09T23:01:07.799Z,99722.81
2023-04-09T23:03:37.255Z,99733.59
2023-04-09T23:06:05.727Z,99723.19
2023-04-09T23:08:33.786Z,99719.97
2023-04-09T23:11:01.828Z,99718.50
2023-04-09T23:13:29.927Z,99711.41
2023-04-09T23:15:58.060Z,99707.06
2023-04-09T23:18:26.156Z,99708.78
2023-04-09T23:20:55.735Z,99709.69
2023-04-09T23:23:23.800Z,99708.78
2023-04-09T23:25:52.557Z,99717.66
2023-04-09T23:28:20.646Z,99715.28
2023-04-09T23:30:48.771Z,99705.69
2023-04-09T23:33:16.853Z,99701.53
2023-04-09T23:35:45.094Z,99705.03
2023-04-09T23:38:15.165Z,99692.91
2023-04-09T23:40:43.348Z,99691.28
2023-04-09T23:43:11.543Z,99681.13
2023-04-09T23:45:39.625Z,99671.75
2023-04-09T23:48:09.012Z,99676.31
2023-04-09T23:50:39.460Z,99680.84
2023-04-09T23:53:07.702Z,99676.63
2023-04-09T23:55:40.848Z,99668.91
2023-04-09T23:58:09.813Z,99678.47
